sensor_id;sensor_type;location;lat;lon;timestamp;temperature;humidity
14210;DHT22;7188;56.070;12.698;2022-09-02T06:36:39;12.60;1.00
14210;DHT22;7188;56.070;12.698;2022-09-02T06:39:05;12.70;1.00
14210;DHT22;7188;56.070;12.698;2022-09-02T06:41:32;12.80;1.00
14210;DHT22;7188;56.070;12.698;2022-09-02T06:44:00;13.00;1.00
14210;DHT22;7188;56.070;12.698;2022-09-02T06:46:33;13.10;99.90
14210;DHT22;7188;56.070;12.698;2022-09-02T06:48:59;13.20;1.00
14210;DHT22;7188;56.070;12.698;2022-09-02T06:51:31;13.30;1.00
14210;DHT22;7188;56.070;12.698;2022-09-02T06:53:58;13.40;1.00
14210;DHT22;7188;56.070;12.698;2022-09-02T06:56:24;13.50;99.90
14210;DHT22;7188;56.070;12.698;2022-09-02T06:58:51;13.60;99.90
14210;DHT22;7188;56.070;12.698;2022-09-02T07:01:18;13.70;1.00
14210;DHT22;7188;56.070;12.698;2022-09-02T07:03:44;13.90;1.00
14210;DHT22;7188;56.070;12.698;2022-09-02T07:06:32;14.10;1.00
14210;DHT22;7188;56.070;12.698;2022-09-02T07:09:00;14.20;99.90
14210;DHT22;7188;56.070;12.698;2022-09-02T07:11:35;14.30;25.20
14210;DHT22;7188;56.070;12.698;2022-09-02T07:14:01;14.40;1.00
14210;DHT22;7188;56.070;12.698;2022-09-02T07:16:35;14.40;1.00
14210;DHT22;7188;56.070;12.698;2022-09-02T07:19:02;14.50;47.00
14210;DHT22;7188;56.070;12.698;2022-09-02T07:21:30;14.70;1.00
14210;DHT22;7188;56.070;12.698;2022-09-02T07:23:59;14.80;99.90
14210;DHT22;7188;56.070;12.698;2022-09-02T07:26:26;15.00;1.00
14210;DHT22;7188;56.070;12.698;2022-09-02T07:28:52;15.00;99.90
14210;DHT22;7188;56.070;12.698;2022-09-02T07:31:17;15.00;1.00
14210;DHT22;7188;56.070;12.698;2022-09-02T07:33:44;15.10;1.00
14210;DHT22;7188;56.070;12.698;2022-09-02T07:36:11;15.20;99.90
14210;DHT22;7188;56.070;12.698;2022-09-02T07:38:38;15.40;99.90
14210;DHT22;7188;56.070;12.698;2022-09-02T07:41:06;15.40;1.00
14210;DHT22;7188;56.070;12.698;2022-09-02T07:43:34;15.50;1.00
14210;DHT22;7188;56.070;12.698;2022-09-02T07:46:01;15.70;1.00
14210;DHT22;7188;56.070;12.698;2022-09-02T07:48:28;15.80;1.00
14210;DHT22;7188;56.070;12.698;2022-09-02T07:50:54;15.90;1.00
14210;DHT22;7188;56.070;12.698;2022-09-02T07:53:20;16.00;99.90
14210;DHT22;7188;56.070;12.698;2022-09-02T07:55:47;16.10;99.90
14210;DHT22;7188;56.070;12.698;2022-09-02T07:58:14;16.20;99.90
14210;DHT22;7188;56.070;12.698;2022-09-02T08:00:41;16.20;48.80
14210;DHT22;7188;56.070;12.698;2022-09-02T08:03:08;16.20;75.00
14210;DHT22;7188;56.070;12.698;2022-09-02T08:05:34;16.30;99.90
14210;DHT22;7188;56.070;12.698;2022-09-02T08:08:00;16.40;99.90
14210;DHT22;7188;56.070;12.698;2022-09-02T08:10:27;16.50;99.90
14210;DHT22;7188;56.070;12.698;2022-09-02T08:12:55;16.60;99.90
14210;DHT22;7188;56.070;12.698;2022-09-02T08:15:23;16.60;99.90
14210;DHT22;7188;56.070;12.698;2022-09-02T08:17:50;16.50;71.80
14210;DHT22;7188;56.070;12.698;2022-09-02T08:20:16;16.70;31.90
14210;DHT22;7188;56.070;12.698;2022-09-02T08:22:42;16.70;1.00
14210;DHT22;7188;56.070;12.698;2022-09-02T08:25:09;16.80;1.00
14210;DHT22;7188;56.070;12.698;2022-09-02T08:27:36;16.90;1.00
14210;DHT22;7188;56.070;12.698;2022-09-02T08:30:03;17.00;99.90
14210;DHT22;7188;56.070;12.698;2022-09-02T08:32:30;17.10;99.90
14210;DHT22;7188;56.070;12.698;2022-09-02T08:34:58;17.10;99.90
14210;DHT22;7188;56.070;12.698;2022-09-02T08:37:27;17.20;99.90
14210;DHT22;7188;56.070;12.698;2022-09-02T08:40:07;17.40;99.90
14210;DHT22;7188;56.070;12.698;2022-09-02T08:42:45;17.50;99.90
14210;DHT22;7188;56.070;12.698;2022-09-02T08:45:13;17.60;99.90
14210;DHT22;7188;56.070;12.698;2022-09-02T08:47:47;17.80;99.90
14210;DHT22;7188;56.070;12.698;2022-09-02T08:50:17;17.80;99.90
14210;DHT22;7188;56.070;12.698;2022-09-02T08:55:31;17.90;1.00
14210;DHT22;7188;56.070;12.698;2022-09-02T08:57:59;17.90;99.90
14210;DHT22;7188;56.070;12.698;2022-09-02T09:00:27;17.80;1.00
14210;DHT22;7188;56.070;12.698;2022-09-02T09:03:28;17.90;99.90
14210;DHT22;7188;56.070;12.698;2022-09-02T09:11:32;18.00;99.90
14210;DHT22;7188;56.070;12.698;2022-09-02T09:17:04;18.20;99.90
14210;DHT22;7188;56.070;12.698;2022-09-02T09:19:52;18.30;99.90
14210;DHT22;7188;56.070;12.698;2022-09-02T09:22:21;18.20;99.90
14210;DHT22;7188;56.070;12.698;2022-09-02T09:24:50;18.30;99.90
14210;DHT22;7188;56.070;12.698;2022-09-02T09:27:22;18.40;1.00
14210;DHT22;7188;56.070;12.698;2022-09-02T09:29:49;18.50;99.90
14210;DHT22;7188;56.070;12.698;2022-09-02T09:34:57;18.40;76.80
14210;DHT22;7188;56.070;12.698;2022-09-02T09:37:48;18.30;99.90
14210;DHT22;7188;56.070;12.698;2022-09-02T09:45:31;19.10;1.00
14210;DHT22;7188;56.070;12.698;2022-09-02T09:50:32;19.30;1.00
14210;DHT22;7188;56.070;12.698;2022-09-02T09:55:57;19.10;1.00
14210;DHT22;7188;56.070;12.698;2022-09-02T09:58:32;19.00;1.00
14210;DHT22;7188;56.070;12.698;2022-09-02T10:01:19;19.10;1.00
14210;DHT22;7188;56.070;12.698;2022-09-02T10:08:59;19.40;1.00
14210;DHT22;7188;56.070;12.698;2022-09-02T10:11:31;19.80;1.00
14210;DHT22;7188;56.070;12.698;2022-09-02T10:14:03;20.10;1.00
14210;DHT22;7188;56.070;12.698;2022-09-02T10:19:41;20.50;1.00
14210;DHT22;7188;56.070;12.698;2022-09-02T10:28:12;20.40;1.00
14210;DHT22;7188;56.070;12.698;2022-09-02T10:30:59;20.20;1.00
14210;DHT22;7188;56.070;12.698;2022-09-02T10:45:46;19.90;1.00
14210;DHT22;7188;56.070;12.698;2022-09-02T10:48:20;19.70;1.00
14210;DHT22;7188;56.070;12.698;2022-09-02T10:59:51;20.60;1.00
14210;DHT22;7188;56.070;12.698;2022-09-02T11:02:41;20.90;1.00
14210;DHT22;7188;56.070;12.698;2022-09-02T11:05:13;21.20;1.00
14210;DHT22;7188;56.070;12.698;2022-09-02T11:10:37;20.90;1.00
14210;DHT22;7188;56.070;12.698;2022-09-02T11:16:13;20.50;1.00
14210;DHT22;7188;56.070;12.698;2022-09-02T11:18:51;20.60;1.00
14210;DHT22;7188;56.070;12.698;2022-09-02T11:27:11;21.30;1.00
14210;DHT22;7188;56.070;12.698;2022-09-02T11:35:28;21.50;1.00
14210;DHT22;7188;56.070;12.698;2022-09-02T11:40:28;21.80;1.00
14210;DHT22;7188;56.070;12.698;2022-09-02T11:49:41;21.60;1.00
14210;DHT22;7188;56.070;12.698;2022-09-02T11:52:32;21.40;1.00
14210;DHT22;7188;56.070;12.698;2022-09-02T11:55:08;21.40;1.00
14210;DHT22;7188;56.070;12.698;2022-09-02T11:57:35;21.20;1.00
14210;DHT22;7188;56.070;12.698;2022-09-02T12:08:00;20.90;1.00
14210;DHT22;7188;56.070;12.698;2022-09-02T12:13:41;20.80;1.00
14210;DHT22;7188;56.070;12.698;2022-09-02T12:35:33;21.20;1.00
14210;DHT22;7188;56.070;12.698;2022-09-02T12:40:40;21.20;1.00
14210;DHT22;7188;56.070;12.698;2022-09-02T12:43:25;21.40;1.00
14210;DHT22;7188;56.070;12.698;2022-09-02T12:45:55;21.70;1.00
14210;DHT22;7188;56.070;12.698;2022-09-02T12:48:27;21.70;1.00
14210;DHT22;7188;56.070;12.698;2022-09-02T12:50:57;21.80;1.00
14210;DHT22;7188;56.070;12.698;2022-09-02T12:56:00;22.00;1.00
14210;DHT22;7188;56.070;12.698;2022-09-02T12:58:32;21.60;1.00
14210;DHT22;7188;56.070;12.698;2022-09-02T13:01:05;21.50;1.00
14210;DHT22;7188;56.070;12.698;2022-09-02T13:31:19;22.20;1.00
14210;DHT22;7188;56.070;12.698;2022-09-02T13:33:46;22.40;1.00
14210;DHT22;7188;56.070;12.698;2022-09-02T13:36:26;22.30;1.00
14210;DHT22;7188;56.070;12.698;2022-09-02T13:38:52;22.20;1.00
14210;DHT22;7188;56.070;12.698;2022-09-02T13:41:47;22.00;1.00
14210;DHT22;7188;56.070;12.698;2022-09-02T13:44:25;21.90;1.00
14210;DHT22;7188;56.070;12.698;2022-09-02T13:49:50;21.60;1.00
14210;DHT22;7188;56.070;12.698;2022-09-02T13:52:20;21.50;1.00
14210;DHT22;7188;56.070;12.698;2022-09-02T13:54:53;21.30;1.00
14210;DHT22;7188;56.070;12.698;2022-09-02T13:57:23;21.20;1.00
14210;DHT22;7188;56.070;12.698;2022-09-02T13:59:51;21.20;1.00
14210;DHT22;7188;56.070;12.698;2022-09-02T14:02:35;21.20;1.00
14210;DHT22;7188;56.070;12.698;2022-09-02T14:05:07;21.20;1.00
14210;DHT22;7188;56.070;12.698;2022-09-02T14:08:02;21.20;1.00
14210;DHT22;7188;56.070;12.698;2022-09-02T14:10:30;21.30;1.00
14210;DHT22;7188;56.070;12.698;2022-09-02T14:13:00;21.20;1.00
14210;DHT22;7188;56.070;12.698;2022-09-02T14:15:30;21.10;1.00
14210;DHT22;7188;56.070;12.698;2022-09-02T14:18:12;21.10;1.00
14210;DHT22;7188;56.070;12.698;2022-09-02T14:23:16;21.10;1.00
14210;DHT22;7188;56.070;12.698;2022-09-02T14:25:50;21.00;1.00
14210;DHT22;7188;56.070;12.698;2022-09-02T14:28:22;20.80;1.00
14210;DHT22;7188;56.070;12.698;2022-09-02T14:31:24;20.70;1.00
14210;DHT22;7188;56.070;12.698;2022-09-02T14:33:52;20.70;28.10
14210;DHT22;7188;56.070;12.698;2022-09-02T14:41:24;20.70;1.00
14210;DHT22;7188;56.070;12.698;2022-09-02T14:43:54;20.60;17.90
14210;DHT22;7188;56.070;12.698;2022-09-02T14:46:33;20.50;1.00
14210;DHT22;7188;56.070;12.698;2022-09-02T14:49:05;20.30;99.90
14210;DHT22;7188;56.070;12.698;2022-09-02T14:51:53;20.10;18.50
14210;DHT22;7188;56.070;12.698;2022-09-02T14:54:46;20.00;94.10
14210;DHT22;7188;56.070;12.698;2022-09-02T14:59:55;19.80;99.90
14210;DHT22;7188;56.070;12.698;2022-09-02T15:04:56;19.80;99.90
14210;DHT22;7188;56.070;12.698;2022-09-02T15:07:23;19.80;99.90
14210;DHT22;7188;56.070;12.698;2022-09-02T15:09:49;19.70;99.90
14210;DHT22;7188;56.070;12.698;2022-09-02T15:12:23;19.70;99.90
14210;DHT22;7188;56.070;12.698;2022-09-02T15:14:53;19.70;99.90
14210;DHT22;7188;56.070;12.698;2022-09-02T15:17:19;19.70;99.90
14210;DHT22;7188;56.070;12.698;2022-09-02T15:19:45;19.70;99.90
14210;DHT22;7188;56.070;12.698;2022-09-02T15:22:11;19.70;99.90
14210;DHT22;7188;56.070;12.698;2022-09-02T15:24:36;19.70;99.90
14210;DHT22;7188;56.070;12.698;2022-09-02T15:27:02;19.60;99.90
14210;DHT22;7188;56.070;12.698;2022-09-02T15:29:28;19.70;99.90
14210;DHT22;7188;56.070;12.698;2022-09-02T15:31:54;19.70;99.90
14210;DHT22;7188;56.070;12.698;2022-09-02T15:34:20;19.70;99.90
14210;DHT22;7188;56.070;12.698;2022-09-02T15:36:46;19.70;99.90
14210;DHT22;7188;56.070;12.698;2022-09-02T15:39:12;19.70;99.90
14210;DHT22;7188;56.070;12.698;2022-09-02T15:41:37;19.70;99.90
14210;DHT22;7188;56.070;12.698;2022-09-02T15:44:06;19.60;99.90
14210;DHT22;7188;56.070;12.698;2022-09-02T15:46:32;19.50;99.90
14210;DHT22;7188;56.070;12.698;2022-09-02T15:49:07;19.40;99.90
14210;DHT22;7188;56.070;12.698;2022-09-02T15:51:34;19.20;99.90
14210;DHT22;7188;56.070;12.698;2022-09-02T15:54:03;19.20;99.90
14210;DHT22;7188;56.070;12.698;2022-09-02T15:56:31;19.30;99.90
14210;DHT22;7188;56.070;12.698;2022-09-02T15:59:01;19.20;99.90
14210;DHT22;7188;56.070;12.698;2022-09-02T16:01:30;19.20;99.90
14210;DHT22;7188;56.070;12.698;2022-09-02T16:03:56;19.20;99.90
14210;DHT22;7188;56.070;12.698;2022-09-02T16:06:22;19.30;99.90
14210;DHT22;7188;56.070;12.698;2022-09-02T16:08:48;19.30;99.90
14210;DHT22;7188;56.070;12.698;2022-09-02T16:11:14;19.30;99.90
14210;DHT22;7188;56.070;12.698;2022-09-02T16:13:40;19.40;99.90
14210;DHT22;7188;56.070;12.698;2022-09-02T16:16:08;19.30;99.90
14210;DHT22;7188;56.070;12.698;2022-09-02T16:18:35;19.30;99.90
14210;DHT22;7188;56.070;12.698;2022-09-02T16:21:01;19.20;99.90
14210;DHT22;7188;56.070;12.698;2022-09-02T16:23:29;19.00;99.90
14210;DHT22;7188;56.070;12.698;2022-09-02T16:26:14;18.90;99.90
14210;DHT22;7188;56.070;12.698;2022-09-02T16:28:42;18.90;99.90
14210;DHT22;7188;56.070;12.698;2022-09-02T16:31:21;18.70;99.90
14210;DHT22;7188;56.070;12.698;2022-09-02T16:34:17;18.70;99.90
14210;DHT22;7188;56.070;12.698;2022-09-02T16:36:47;18.60;99.90
14210;DHT22;7188;56.070;12.698;2022-09-02T16:39:15;18.40;99.90
14210;DHT22;7188;56.070;12.698;2022-09-02T16:42:06;18.40;99.90
14210;DHT22;7188;56.070;12.698;2022-09-02T16:44:32;18.40;99.90
14210;DHT22;7188;56.070;12.698;2022-09-02T16:46:58;18.30;99.90
14210;DHT22;7188;56.070;12.698;2022-09-02T16:49:24;18.30;99.90
14210;DHT22;7188;56.070;12.698;2022-09-02T16:51:50;18.20;99.90
14210;DHT22;7188;56.070;12.698;2022-09-02T16:54:17;18.20;1.00
14210;DHT22;7188;56.070;12.698;2022-09-02T16:56:44;18.20;1.00
14210;DHT22;7188;56.070;12.698;2022-09-02T16:59:10;18.20;1.00
14210;DHT22;7188;56.070;12.698;2022-09-02T17:01:38;18.10;1.00
14210;DHT22;7188;56.070;12.698;2022-09-02T17:04:06;18.10;1.00
14210;DHT22;7188;56.070;12.698;2022-09-02T17:06:32;18.00;1.00
14210;DHT22;7188;56.070;12.698;2022-09-02T17:08:58;18.00;1.00
14210;DHT22;7188;56.070;12.698;2022-09-02T17:11:31;17.90;1.00
14210;DHT22;7188;56.070;12.698;2022-09-02T17:14:03;17.80;1.00
14210;DHT22;7188;56.070;12.698;2022-09-02T17:16:40;17.80;1.00
14210;DHT22;7188;56.070;12.698;2022-09-02T17:19:07;17.70;1.00
14210;DHT22;7188;56.070;12.698;2022-09-02T17:21:41;17.70;1.00
14210;DHT22;7188;56.070;12.698;2022-09-02T17:24:08;17.60;1.00
14210;DHT22;7188;56.070;12.698;2022-09-02T17:26:35;17.50;1.00
14210;DHT22;7188;56.070;12.698;2022-09-02T17:29:10;17.50;1.00
14210;DHT22;7188;56.070;12.698;2022-09-02T17:31:36;17.50;1.00
14210;DHT22;7188;56.070;12.698;2022-09-02T17:34:05;17.30;1.00
14210;DHT22;7188;56.070;12.698;2022-09-02T17:36:34;17.20;32.50
14210;DHT22;7188;56.070;12.698;2022-09-02T17:39:02;17.20;99.90
14210;DHT22;7188;56.070;12.698;2022-09-02T17:41:28;17.00;99.90
14210;DHT22;7188;56.070;12.698;2022-09-02T17:44:13;17.00;99.90
14210;DHT22;7188;56.070;12.698;2022-09-02T17:46:40;16.80;99.90
14210;DHT22;7188;56.070;12.698;2022-09-02T17:49:06;16.80;99.90
14210;DHT22;7188;56.070;12.698;2022-09-02T17:51:32;16.70;99.90
14210;DHT22;7188;56.070;12.698;2022-09-02T17:53:58;16.60;99.90
14210;DHT22;7188;56.070;12.698;2022-09-02T17:59:09;16.50;1.00
14210;DHT22;7188;56.070;12.698;2022-09-02T18:02:08;16.40;1.00
14210;DHT22;7188;56.070;12.698;2022-09-02T18:07:38;16.20;1.00
14210;DHT22;7188;56.070;12.698;2022-09-02T18:10:06;16.20;1.00
14210;DHT22;7188;56.070;12.698;2022-09-02T18:12:35;16.10;1.00
14210;DHT22;7188;56.070;12.698;2022-09-02T18:15:02;16.10;1.00
14210;DHT22;7188;56.070;12.698;2022-09-02T18:17:34;16.00;1.00
14210;DHT22;7188;56.070;12.698;2022-09-02T18:28:31;15.70;99.90
14210;DHT22;7188;56.070;12.698;2022-09-02T18:34:03;15.60;99.90
14210;DHT22;7188;56.070;12.698;2022-09-02T18:44:36;15.40;99.90
14210;DHT22;7188;56.070;12.698;2022-09-02T18:47:09;15.40;1.00
14210;DHT22;7188;56.070;12.698;2022-09-02T18:49:37;15.40;1.00
14210;DHT22;7188;56.070;12.698;2022-09-02T18:52:08;15.30;1.00
14210;DHT22;7188;56.070;12.698;2022-09-02T18:57:07;15.30;1.00
14210;DHT22;7188;56.070;12.698;2022-09-02T18:59:42;15.30;1.00
14210;DHT22;7188;56.070;12.698;2022-09-02T19:02:22;15.20;1.00
14210;DHT22;7188;56.070;12.698;2022-09-02T19:04:49;15.20;1.00
14210;DHT22;7188;56.070;12.698;2022-09-02T19:07:17;15.20;1.00
14210;DHT22;7188;56.070;12.698;2022-09-02T19:10:03;15.10;1.00
14210;DHT22;7188;56.070;12.698;2022-09-02T19:12:32;15.00;1.00
14210;DHT22;7188;56.070;12.698;2022-09-02T19:14:59;15.00;1.00
14210;DHT22;7188;56.070;12.698;2022-09-02T19:17:25;15.00;1.00
14210;DHT22;7188;56.070;12.698;2022-09-02T19:19:50;14.90;1.00
14210;DHT22;7188;56.070;12.698;2022-09-02T19:22:20;14.90;17.90
14210;DHT22;7188;56.070;12.698;2022-09-02T19:24:51;14.80;63.70
14210;DHT22;7188;56.070;12.698;2022-09-02T19:27:23;14.80;99.90
14210;DHT22;7188;56.070;12.698;2022-09-02T19:29:54;14.80;99.90
14210;DHT22;7188;56.070;12.698;2022-09-02T19:32:28;14.70;99.90
14210;DHT22;7188;56.070;12.698;2022-09-02T19:34:54;14.70;99.90
14210;DHT22;7188;56.070;12.698;2022-09-02T19:37:20;14.60;1.00
14210;DHT22;7188;56.070;12.698;2022-09-02T19:39:48;14.60;1.00
14210;DHT22;7188;56.070;12.698;2022-09-02T19:42:15;14.60;1.00
14210;DHT22;7188;56.070;12.698;2022-09-02T19:44:44;14.50;1.00
14210;DHT22;7188;56.070;12.698;2022-09-02T19:47:10;14.50;1.00
14210;DHT22;7188;56.070;12.698;2022-09-02T19:49:37;14.40;76.00
14210;DHT22;7188;56.070;12.698;2022-09-02T19:52:03;14.40;99.90
14210;DHT22;7188;56.070;12.698;2022-09-02T19:54:29;14.40;99.90
14210;DHT22;7188;56.070;12.698;2022-09-02T19:56:55;14.30;1.00
14210;DHT22;7188;56.070;12.698;2022-09-02T19:59:21;14.30;1.00
14210;DHT22;7188;56.070;12.698;2022-09-02T20:01:47;14.30;1.00
14210;DHT22;7188;56.070;12.698;2022-09-02T20:04:12;14.20;1.00
14210;DHT22;7188;56.070;12.698;2022-09-02T20:06:38;14.20;1.00
14210;DHT22;7188;56.070;12.698;2022-09-02T20:09:04;14.10;60.80
14210;DHT22;7188;56.070;12.698;2022-09-02T20:11:30;14.10;99.90
14210;DHT22;7188;56.070;12.698;2022-09-02T20:13:56;14.10;99.90
14210;DHT22;7188;56.070;12.698;2022-09-02T20:16:24;14.10;99.90
14210;DHT22;7188;56.070;12.698;2022-09-02T20:18:51;14.00;1.00
14210;DHT22;7188;56.070;12.698;2022-09-02T20:21:21;14.00;1.00
14210;DHT22;7188;56.070;12.698;2022-09-02T20:23:47;14.00;1.00
14210;DHT22;7188;56.070;12.698;2022-09-02T20:26:38;13.90;99.90
14210;DHT22;7188;56.070;12.698;2022-09-02T20:31:37;13.90;1.00
14210;DHT22;7188;56.070;12.698;2022-09-02T20:36:49;13.90;1.00
14210;DHT22;7188;56.070;12.698;2022-09-02T20:39:34;13.90;99.90
14210;DHT22;7188;56.070;12.698;2022-09-02T20:42:23;13.90;59.50
14210;DHT22;7188;56.070;12.698;2022-09-02T21:01:08;13.80;99.90
14210;DHT22;7188;56.070;12.698;2022-09-02T21:04:01;13.80;99.90
14210;DHT22;7188;56.070;12.698;2022-09-02T21:06:29;13.70;99.90
14210;DHT22;7188;56.070;12.698;2022-09-02T21:11:38;13.70;1.00
14210;DHT22;7188;56.070;12.698;2022-09-02T21:14:22;13.60;1.00
14210;DHT22;7188;56.070;12.698;2022-09-02T21:16:58;13.60;1.00
14210;DHT22;7188;56.070;12.698;2022-09-02T21:19:53;13.60;99.90
14210;DHT22;7188;56.070;12.698;2022-09-02T21:22:26;13.50;99.90
14210;DHT22;7188;56.070;12.698;2022-09-02T21:27:36;13.40;1.00
14210;DHT22;7188;56.070;12.698;2022-09-02T21:30:11;13.30;1.00
14210;DHT22;7188;56.070;12.698;2022-09-02T21:32:41;13.30;1.00
14210;DHT22;7188;56.070;12.698;2022-09-02T21:35:22;13.30;1.00
14210;DHT22;7188;56.070;12.698;2022-09-02T21:37:53;13.30;1.00
14210;DHT22;7188;56.070;12.698;2022-09-02T21:40:25;13.30;1.00
14210;DHT22;7188;56.070;12.698;2022-09-02T21:43:01;13.20;1.00
14210;DHT22;7188;56.070;12.698;2022-09-02T21:45:39;13.20;1.00
14210;DHT22;7188;56.070;12.698;2022-09-02T21:50:50;13.20;15.90
14210;DHT22;7188;56.070;12.698;2022-09-02T21:54:08;13.10;21.60
14210;DHT22;7188;56.070;12.698;2022-09-02T22:01:59;13.00;84.40
14210;DHT22;7188;56.070;12.698;2022-09-02T22:10:49;13.00;99.90
14210;DHT22;7188;56.070;12.698;2022-09-02T22:12:56;12.90;99.90
14210;DHT22;7188;56.070;12.698;2022-09-02T22:16:03;12.90;99.90
14210;DHT22;7188;56.070;12.698;2022-09-02T22:18:57;12.90;99.90
14210;DHT22;7188;56.070;12.698;2022-09-02T22:21:30;12.90;99.90
14210;DHT22;7188;56.070;12.698;2022-09-02T22:23:57;12.90;99.90
14210;DHT22;7188;56.070;12.698;2022-09-02T22:26:34;12.80;99.90
14210;DHT22;7188;56.070;12.698;2022-09-02T22:29:05;12.80;99.90
14210;DHT22;7188;56.070;12.698;2022-09-02T22:31:34;12.80;99.90
14210;DHT22;7188;56.070;12.698;2022-09-02T22:34:05;12.80;99.90
14210;DHT22;7188;56.070;12.698;2022-09-02T22:36:51;12.80;99.90
14210;DHT22;7188;56.070;12.698;2022-09-02T22:39:26;12.80;99.90
14210;DHT22;7188;56.070;12.698;2022-09-02T22:42:11;12.80;99.90
14210;DHT22;7188;56.070;12.698;2022-09-02T22:48:02;12.80;99.90
14210;DHT22;7188;56.070;12.698;2022-09-02T22:50:54;12.70;99.90
14210;DHT22;7188;56.070;12.698;2022-09-02T22:53:40;12.70;99.90
14210;DHT22;7188;56.070;12.698;2022-09-02T23:00:08;12.70;99.90
14210;DHT22;7188;56.070;12.698;2022-09-02T23:03:09;12.70;99.90
14210;DHT22;7188;56.070;12.698;2022-09-02T23:08:16;12.70;99.90
14210;DHT22;7188;56.070;12.698;2022-09-02T23:21:45;12.60;99.90
14210;DHT22;7188;56.070;12.698;2022-09-02T23:24:18;12.60;99.90
14210;DHT22;7188;56.070;12.698;2022-09-02T23:26:57;12.60;99.90
14210;DHT22;7188;56.070;12.698;2022-09-02T23:29:28;12.60;99.90
14210;DHT22;7188;56.070;12.698;2022-09-02T23:31:57;12.60;99.90
14210;DHT22;7188;56.070;12.698;2022-09-02T23:34:34;12.60;99.90
14210;DHT22;7188;56.070;12.698;2022-09-02T23:37:05;12.50;99.90
14210;DHT22;7188;56.070;12.698;2022-09-02T23:40:00;12.50;99.90
14210;DHT22;7188;56.070;12.698;2022-09-02T23:42:27;12.50;99.90
14210;DHT22;7188;56.070;12.698;2022-09-02T23:45:00;12.50;99.90
14210;DHT22;7188;56.070;12.698;2022-09-02T23:53:03;12.50;99.90
